Time;durP1;ratioP1;P1;durP2;ratioP2;P2;SDS_P1;SDS_P2;PMS_P1;PMS_P2;Temp;Humidity;BMP_temperature;BMP_pressure;BME280_temperature;BME280_humidity;BME280_pressure;Samples;Min_cycle;Max_cycle;Signal;HPM_P1;HPM_P2
2022/01/02 00:00:10;;;;;;;3.00;1.80;;;;;;;;;;5040304;28;20557;-46
2022/01/02 00:02:37;;;;;;;2.08;1.90;;;;;;;;;;5032050;28;20786;-46
2022/01/02 00:05:06;;;;;;;3.67;1.58;;;;;;;;;;5044657;28;20183;-46
2022/01/02 00:07:35;;;;;;;2.53;1.70;;;;;;;;;;5036110;28;20192;-46
2022/01/02 00:10:03;;;;;;;1.95;1.73;;;;;;;;;;5033061;28;20264;-46
2022/01/02 00:12:32;;;;;;;1.58;1.48;;;;;;;;;;5040503;28;20233;-46
2022/01/02 00:14:58;;;;;;;2.22;1.60;;;;;;;;;;5022995;28;20187;-46
2022/01/02 00:17:25;;;;;;;2.22;1.55;;;;;;;;;;5030866;28;20231;-46
2022/01/02 00:19:57;;;;;;;2.30;1.90;;;;;;;;;;5031076;28;20179;-46
2022/01/02 00:22:35;;;;;;;2.28;1.65;;;;;;;;;;5031930;28;20186;-46
2022/01/02 00:25:04;;;;;;;1.70;1.42;;;;;;;;;;5008568;28;20249;-46
2022/01/02 00:27:31;;;;;;;2.25;1.50;;;;;;;;;;5031349;28;20191;-46
2022/01/02 00:29:58;;;;;;;3.08;1.77;;;;;;;;;;5026121;28;20278;-46
2022/01/02 00:32:24;;;;;;;1.80;1.60;;;;;;;;;;5042208;28;20191;-46
2022/01/02 00:34:54;;;;;;;2.05;1.58;;;;;;;;;;5036668;28;20187;-46
2022/01/02 00:37:20;;;;;;;2.00;1.75;;;;;;;;;;5035633;28;20603;-46
2022/01/02 00:39:46;;;;;;;3.67;1.60;;;;;;;;;;5034986;28;20231;-46
2022/01/02 00:42:17;;;;;;;1.77;1.45;;;;;;;;;;5041257;28;20203;-46
2022/01/02 00:44:58;;;;;;;1.80;1.60;;;;;;;;;;5035635;28;20249;-46
2022/01/02 00:47:24;;;;;;;1.45;1.35;;;;;;;;;;5035118;28;20450;-46
2022/01/02 00:50:04;;;;;;;1.38;1.27;;;;;;;;;;5032248;28;20194;-46
2022/01/02 00:52:30;;;;;;;1.92;1.73;;;;;;;;;;5044604;28;20193;-46
2022/01/02 00:54:57;;;;;;;2.00;1.80;;;;;;;;;;5044833;28;20193;-46
2022/01/02 00:57:29;;;;;;;1.70;1.60;;;;;;;;;;5042041;28;20238;-46
2022/01/02 01:00:00;;;;;;;2.03;1.50;;;;;;;;;;5030973;28;20229;-46
2022/01/02 01:02:30;;;;;;;1.58;1.48;;;;;;;;;;5041434;28;20582;-46
2022/01/02 01:04:56;;;;;;;1.60;1.50;;;;;;;;;;5042313;28;20568;-46
2022/01/02 01:07:23;;;;;;;3.03;1.52;;;;;;;;;;5036670;28;20188;-46
2022/01/02 01:09:49;;;;;;;2.25;1.77;;;;;;;;;;5026741;28;20603;-46
2022/01/02 01:12:17;;;;;;;2.10;1.63;;;;;;;;;;5035514;28;20194;-46
2022/01/02 01:14:43;;;;;;;1.95;1.63;;;;;;;;;;5036690;28;20187;-46
2022/01/02 01:17:10;;;;;;;1.98;1.40;;;;;;;;;;5032965;28;20251;-46
2022/01/02 01:19:36;;;;;;;1.65;1.50;;;;;;;;;;5037530;28;20179;-46
2022/01/02 01:22:02;;;;;;;2.10;1.60;;;;;;;;;;5047464;28;20183;-46
2022/01/02 01:24:29;;;;;;;1.60;1.50;;;;;;;;;;5039466;28;20219;-46
2022/01/02 01:26:56;;;;;;;2.15;1.60;;;;;;;;;;5037824;28;20171;-46
2022/01/02 01:29:22;;;;;;;1.50;1.40;;;;;;;;;;5044263;28;20187;-46
2022/01/02 01:31:48;;;;;;;1.40;1.30;;;;;;;;;;5038820;28;20634;-46
2022/01/02 01:34:14;;;;;;;1.38;1.25;;;;;;;;;;5033802;28;20184;-46
2022/01/02 01:36:40;;;;;;;1.95;1.35;;;;;;;;;;5034124;28;20192;-46
2022/01/02 01:39:06;;;;;;;1.40;1.30;;;;;;;;;;5046410;28;20576;-46
2022/01/02 01:41:36;;;;;;;1.38;1.27;;;;;;;;;;5041551;28;20214;-46
2022/01/02 01:46:36;;;;;;;2.58;1.70;;;;;;;;;;5036801;28;20747;-46
2022/01/02 01:49:13;;;;;;;1.38;1.20;;;;;;;;;;5047474;28;20253;-46
2022/01/02 01:51:39;;;;;;;1.52;1.42;;;;;;;;;;5047878;28;20201;-46
2022/01/02 01:54:05;;;;;;;1.33;1.23;;;;;;;;;;5052262;28;20232;-46
2022/01/02 01:56:32;;;;;;;1.48;1.38;;;;;;;;;;5045429;28;20184;-46
2022/01/02 01:58:57;;;;;;;1.40;1.30;;;;;;;;;;5028156;28;20207;-46
2022/01/02 02:01:24;;;;;;;1.67;1.55;;;;;;;;;;5046666;28;20214;-46
2022/01/02 02:03:49;;;;;;;1.50;1.40;;;;;;;;;;5035117;28;20207;-46
2022/01/02 02:06:16;;;;;;;1.48;1.38;;;;;;;;;;5032663;28;20180;-46
2022/01/02 02:08:42;;;;;;;2.17;1.60;;;;;;;;;;5028046;28;20509;-46
2022/01/02 02:11:08;;;;;;;1.40;1.30;;;;;;;;;;5044033;28;20188;-46
2022/01/02 02:13:34;;;;;;;1.40;1.30;;;;;;;;;;5042408;28;20194;-46
2022/01/02 02:16:02;;;;;;;1.58;1.30;;;;;;;;;;5043753;28;20218;-46
2022/01/02 02:18:28;;;;;;;1.35;1.25;;;;;;;;;;5044680;28;20238;-46
2022/01/02 02:20:54;;;;;;;2.15;1.52;;;;;;;;;;5042038;28;20542;-46
2022/01/02 02:23:20;;;;;;;1.40;1.30;;;;;;;;;;5030695;28;20198;-46
2022/01/02 02:25:46;;;;;;;1.80;1.55;;;;;;;;;;5024395;28;20188;-46
2022/01/02 02:28:13;;;;;;;1.45;1.35;;;;;;;;;;5023658;28;20206;-46
2022/01/02 02:30:41;;;;;;;1.33;1.23;;;;;;;;;;5039006;28;20784;-46
2022/01/02 02:33:08;;;;;;;1.40;1.30;;;;;;;;;;5023239;28;20175;-46
2022/01/02 02:35:35;;;;;;;1.98;1.40;;;;;;;;;;5036918;28;20249;-46
2022/01/02 02:38:01;;;;;;;1.60;1.27;;;;;;;;;;5035100;28;20225;-46
2022/01/02 02:40:28;;;;;;;1.75;1.25;;;;;;;;;;5046124;28;20183;-46
2022/01/02 02:43:00;;;;;;;1.50;1.40;;;;;;;;;;5036995;28;20183;-46
2022/01/02 02:51:08;;;;;;;1.40;1.20;;;;;;;;;;5032633;28;20194;-46
2022/01/02 02:53:36;;;;;;;1.65;1.55;;;;;;;;;;5040527;28;20200;-46
2022/01/02 02:56:02;;;;;;;1.40;1.30;;;;;;;;;;5047297;28;20237;-46
2022/01/02 03:00:58;;;;;;;1.40;1.30;;;;;;;;;;5041563;28;20490;-46
2022/01/02 03:03:24;;;;;;;2.95;1.17;;;;;;;;;;5034995;28;20207;-46
2022/01/02 03:05:49;;;;;;;1.17;1.08;;;;;;;;;;5043683;28;20183;-46
2022/01/02 03:08:16;;;;;;;1.42;1.33;;;;;;;;;;5036362;28;20183;-46
2022/01/02 03:10:42;;;;;;;1.50;1.27;;;;;;;;;;5041722;28;20270;-46
2022/01/02 03:13:08;;;;;;;1.60;1.30;;;;;;;;;;5043167;28;20265;-46
2022/01/02 03:15:34;;;;;;;1.00;0.90;;;;;;;;;;5038627;28;20202;-46
2022/01/02 03:18:00;;;;;;;1.33;1.20;;;;;;;;;;5041774;28;20229;-46
2022/01/02 03:20:26;;;;;;;1.30;1.20;;;;;;;;;;5034963;28;20188;-46
2022/01/02 03:22:52;;;;;;;1.42;1.10;;;;;;;;;;5042760;28;20180;-46
2022/01/02 03:25:18;;;;;;;1.40;1.30;;;;;;;;;;5030447;28;20366;-46
2022/01/02 03:27:45;;;;;;;1.35;1.20;;;;;;;;;;5044939;28;21152;-46
2022/01/02 03:30:11;;;;;;;1.50;1.40;;;;;;;;;;5033496;28;20188;-46
2022/01/02 03:32:37;;;;;;;1.77;1.48;;;;;;;;;;5034107;28;20192;-46
2022/01/02 03:35:04;;;;;;;1.50;1.40;;;;;;;;;;5025427;28;20576;-46
2022/01/02 03:37:33;;;;;;;1.30;1.15;;;;;;;;;;5026805;28;20242;-46
2022/01/02 03:39:59;;;;;;;1.60;1.45;;;;;;;;;;5031651;28;20175;-46
2022/01/02 03:42:25;;;;;;;1.33;1.23;;;;;;;;;;5021530;28;20180;-46
2022/01/02 03:44:51;;;;;;;1.40;1.30;;;;;;;;;;5024895;28;20198;-46
2022/01/02 03:47:17;;;;;;;1.33;1.23;;;;;;;;;;5042577;28;20175;-46
2022/01/02 03:49:43;;;;;;;1.33;1.23;;;;;;;;;;5026982;28;20238;-46
2022/01/02 03:52:09;;;;;;;1.10;1.05;;;;;;;;;;5046599;28;20191;-46
2022/01/02 03:54:35;;;;;;;1.30;1.20;;;;;;;;;;5036879;28;20255;-46
2022/01/02 03:57:02;;;;;;;1.00;1.00;;;;;;;;;;5036375;28;20191;-46
2022/01/02 03:59:28;;;;;;;1.35;1.25;;;;;;;;;;5035337;28;20182;-46
2022/01/02 04:01:54;;;;;;;1.85;1.17;;;;;;;;;;5050714;28;20294;-46
2022/01/02 04:04:20;;;;;;;1.25;1.20;;;;;;;;;;5032132;28;20262;-46
2022/01/02 04:06:46;;;;;;;1.15;1.08;;;;;;;;;;5037328;28;20183;-46
2022/01/02 04:09:12;;;;;;;1.23;1.13;;;;;;;;;;5031859;28;20273;-46
2022/01/02 04:11:38;;;;;;;1.60;1.20;;;;;;;;;;5036424;28;20221;-46
2022/01/02 04:14:04;;;;;;;1.10;1.00;;;;;;;;;;5038176;28;20184;-46
2022/01/02 04:16:30;;;;;;;1.17;1.10;;;;;;;;;;5035895;28;20475;-46
2022/01/02 04:18:56;;;;;;;1.50;1.40;;;;;;;;;;5039499;28;20210;-46
2022/01/02 04:21:22;;;;;;;1.40;1.25;;;;;;;;;;5030243;28;20241;-46
2022/01/02 04:23:48;;;;;;;1.40;1.27;;;;;;;;;;5038541;28;20574;-46
2022/01/02 04:26:14;;;;;;;1.38;1.20;;;;;;;;;;5034380;28;20187;-46
2022/01/02 04:28:40;;;;;;;1.30;1.20;;;;;;;;;;5025366;28;20215;-46
2022/01/02 04:31:09;;;;;;;1.42;1.30;;;;;;;;;;5030766;28;20815;-46
2022/01/02 04:33:35;;;;;;;1.27;1.20;;;;;;;;;;5029791;28;20438;-46
2022/01/02 04:36:01;;;;;;;2.65;1.35;;;;;;;;;;5030438;28;20185;-46
2022/01/02 04:38:27;;;;;;;1.20;1.10;;;;;;;;;;5042233;28;20834;-46
2022/01/02 04:40:53;;;;;;;1.40;1.30;;;;;;;;;;5035868;28;20183;-46
2022/01/02 04:43:19;;;;;;;1.33;1.23;;;;;;;;;;5051455;28;20193;-46
2022/01/02 04:45:45;;;;;;;2.03;1.48;;;;;;;;;;5022341;28;20488;-46
2022/01/02 04:48:11;;;;;;;1.23;1.10;;;;;;;;;;5033807;28;20283;-46
2022/01/02 04:50:37;;;;;;;3.50;1.27;;;;;;;;;;5021647;28;20201;-46
2022/01/02 04:53:03;;;;;;;1.83;1.10;;;;;;;;;;5045527;28;20189;-46
2022/01/02 04:55:29;;;;;;;2.13;1.40;;;;;;;;;;5031320;28;20282;-46
2022/01/02 04:57:56;;;;;;;1.95;1.13;;;;;;;;;;5043935;28;20708;-46
2022/01/02 05:00:22;;;;;;;0.90;0.90;;;;;;;;;;5035259;28;20267;-46
2022/01/02 05:02:49;;;;;;;1.67;1.10;;;;;;;;;;5038634;28;20205;-46
2022/01/02 05:05:16;;;;;;;2.08;1.27;;;;;;;;;;5025966;28;20202;-46
2022/01/02 05:07:42;;;;;;;1.30;1.20;;;;;;;;;;5031726;28;20183;-46
2022/01/02 05:10:08;;;;;;;2.38;1.60;;;;;;;;;;5031559;28;20209;-46
2022/01/02 05:12:34;;;;;;;1.60;1.50;;;;;;;;;;5034844;28;20192;-46
2022/01/02 05:15:01;;;;;;;3.30;1.65;;;;;;;;;;5026589;28;20243;-46
2022/01/02 05:17:27;;;;;;;1.67;1.33;;;;;;;;;;5040436;28;20217;-46
2022/01/02 05:19:53;;;;;;;3.95;1.80;;;;;;;;;;5024924;28;20512;-46
2022/01/02 05:22:19;;;;;;;1.30;1.20;;;;;;;;;;5046228;28;20175;-46
2022/01/02 05:24:45;;;;;;;2.55;1.50;;;;;;;;;;5037025;28;20469;-46
2022/01/02 05:27:11;;;;;;;3.38;1.67;;;;;;;;;;5035702;28;20267;-46
2022/01/02 05:29:37;;;;;;;4.72;1.83;;;;;;;;;;5027186;28;20185;-46
2022/01/02 05:32:03;;;;;;;3.33;1.60;;;;;;;;;;5027148;28;20233;-46
2022/01/02 05:34:29;;;;;;;2.83;1.83;;;;;;;;;;5028863;28;20540;-46
2022/01/02 05:36:55;;;;;;;7.95;2.00;;;;;;;;;;5029172;28;20194;-46
2022/01/02 05:39:22;;;;;;;2.55;1.70;;;;;;;;;;5041455;28;20552;-46
2022/01/02 05:41:49;;;;;;;4.18;1.60;;;;;;;;;;5040095;28;20187;-46
2022/01/02 05:44:15;;;;;;;4.05;2.10;;;;;;;;;;5025152;28;20181;-46
2022/01/02 05:46:41;;;;;;;5.15;2.00;;;;;;;;;;5041372;28;20728;-46
2022/01/02 05:49:07;;;;;;;3.20;1.83;;;;;;;;;;5034629;28;20296;-46
2022/01/02 05:51:33;;;;;;;3.38;1.83;;;;;;;;;;5033084;28;20492;-46
2022/01/02 05:53:59;;;;;;;3.63;1.58;;;;;;;;;;5047577;28;20569;-46
2022/01/02 05:56:25;;;;;;;4.28;1.90;;;;;;;;;;5040416;28;20199;-46
2022/01/02 05:58:52;;;;;;;3.97;1.90;;;;;;;;;;5039554;28;20210;-46
2022/01/02 06:01:18;;;;;;;3.55;1.80;;;;;;;;;;5040188;28;20182;-46
2022/01/02 06:03:44;;;;;;;3.17;1.80;;;;;;;;;;5045625;28;20206;-46
2022/01/02 06:06:10;;;;;;;3.42;1.85;;;;;;;;;;5034987;28;20187;-46
2022/01/02 06:08:37;;;;;;;6.05;1.80;;;;;;;;;;5045818;28;20183;-46
2022/01/02 06:11:03;;;;;;;4.80;1.80;;;;;;;;;;5030253;28;20175;-46
2022/01/02 06:13:29;;;;;;;4.38;1.60;;;;;;;;;;5039184;28;20238;-46
2022/01/02 06:15:55;;;;;;;4.10;1.52;;;;;;;;;;5031834;28;20183;-46
2022/01/02 06:18:21;;;;;;;4.35;1.88;;;;;;;;;;5046266;28;20298;-46
2022/01/02 06:20:47;;;;;;;3.90;1.95;;;;;;;;;;5033056;28;20207;-46
2022/01/02 06:23:13;;;;;;;2.95;1.70;;;;;;;;;;5052350;28;20546;-46
2022/01/02 06:25:39;;;;;;;1.98;1.40;;;;;;;;;;5031985;28;20184;-46
2022/01/02 06:28:05;;;;;;;5.20;1.65;;;;;;;;;;5040357;28;20192;-46
2022/01/02 06:30:32;;;;;;;3.83;1.50;;;;;;;;;;5037427;28;20249;-46
2022/01/02 06:32:58;;;;;;;2.47;1.50;;;;;;;;;;5026849;28;20578;-46
2022/01/02 06:35:24;;;;;;;2.28;1.70;;;;;;;;;;5036079;28;20220;-46
2022/01/02 06:37:50;;;;;;;2.65;1.70;;;;;;;;;;5037391;28;20246;-46
2022/01/02 06:40:16;;;;;;;3.22;1.50;;;;;;;;;;5037681;28;20263;-46
2022/01/02 06:42:42;;;;;;;3.40;1.60;;;;;;;;;;5045120;28;20271;-46
2022/01/02 06:45:09;;;;;;;2.63;1.50;;;;;;;;;;5030996;28;20681;-46
2022/01/02 06:47:36;;;;;;;2.67;1.63;;;;;;;;;;5046615;28;20201;-46
2022/01/02 06:50:02;;;;;;;2.25;1.67;;;;;;;;;;5023949;28;20191;-46
2022/01/02 06:52:28;;;;;;;3.25;2.00;;;;;;;;;;5046365;28;20189;-46
2022/01/02 06:54:54;;;;;;;2.50;1.40;;;;;;;;;;5044228;28;20199;-46
2022/01/02 06:57:20;;;;;;;2.13;1.60;;;;;;;;;;5035147;28;20208;-46
2022/01/02 06:59:46;;;;;;;2.95;1.60;;;;;;;;;;5034261;28;20188;-46
2022/01/02 07:02:13;;;;;;;3.50;1.60;;;;;;;;;;5046820;28;20197;-46
2022/01/02 07:04:39;;;;;;;3.17;1.73;;;;;;;;;;5045639;28;20188;-46
2022/01/02 07:07:05;;;;;;;4.03;1.75;;;;;;;;;;5035261;28;20595;-46
2022/01/02 07:09:32;;;;;;;3.85;1.60;;;;;;;;;;5037000;28;20188;-46
2022/01/02 07:11:58;;;;;;;2.45;1.55;;;;;;;;;;5035633;28;20199;-46
2022/01/02 07:14:27;;;;;;;4.30;1.58;;;;;;;;;;5030287;28;20203;-46
2022/01/02 07:16:53;;;;;;;3.28;1.48;;;;;;;;;;5047137;28;20216;-46
2022/01/02 07:19:19;;;;;;;2.00;1.30;;;;;;;;;;5030098;28;20180;-46
2022/01/02 07:21:45;;;;;;;2.20;1.58;;;;;;;;;;5030082;28;20181;-46
2022/01/02 07:24:11;;;;;;;3.72;1.70;;;;;;;;;;5028683;28;20222;-46
2022/01/02 07:26:37;;;;;;;2.72;1.60;;;;;;;;;;5026205;28;20185;-46
2022/01/02 07:29:03;;;;;;;2.45;1.73;;;;;;;;;;5033800;28;20202;-46
2022/01/02 07:31:29;;;;;;;3.67;1.92;;;;;;;;;;5042080;28;20470;-46
2022/01/02 07:33:55;;;;;;;3.58;1.95;;;;;;;;;;5041524;28;20196;-46
2022/01/02 07:36:22;;;;;;;4.25;1.67;;;;;;;;;;5036590;28;20192;-46
2022/01/02 07:38:48;;;;;;;2.67;1.52;;;;;;;;;;5040000;28;20213;-46
2022/01/02 07:41:14;;;;;;;2.80;1.63;;;;;;;;;;5039385;28;20179;-46
2022/01/02 07:43:41;;;;;;;3.63;1.98;;;;;;;;;;5043441;28;20458;-46
2022/01/02 07:46:07;;;;;;;4.05;1.67;;;;;;;;;;5032758;28;20192;-46
2022/01/02 07:48:33;;;;;;;1.77;1.63;;;;;;;;;;5044760;28;20192;-46
2022/01/02 07:50:59;;;;;;;2.20;1.52;;;;;;;;;;5032197;28;20275;-46
2022/01/02 07:53:25;;;;;;;1.95;1.52;;;;;;;;;;5040936;28;20230;-45
2022/01/02 07:55:51;;;;;;;2.13;1.50;;;;;;;;;;5035820;28;20230;-46
2022/01/02 07:58:17;;;;;;;3.80;1.80;;;;;;;;;;5043776;28;20217;-46
2022/01/02 08:00:43;;;;;;;2.25;1.60;;;;;;;;;;5035346;28;20269;-46
2022/01/02 08:03:09;;;;;;;2.95;1.80;;;;;;;;;;5043689;28;20195;-46
2022/01/02 08:05:35;;;;;;;1.92;1.45;;;;;;;;;;5037792;28;20187;-46
2022/01/02 08:08:01;;;;;;;2.75;1.42;;;;;;;;;;5032795;28;20196;-46
2022/01/02 08:10:28;;;;;;;1.98;1.40;;;;;;;;;;5037226;28;20182;-46
2022/01/02 08:12:55;;;;;;;2.47;1.30;;;;;;;;;;5033372;28;20203;-46
2022/01/02 08:15:21;;;;;;;3.25;1.35;;;;;;;;;;5028750;28;20210;-46
2022/01/02 08:17:48;;;;;;;2.08;1.38;;;;;;;;;;5040749;28;20239;-46
2022/01/02 08:20:14;;;;;;;3.08;1.40;;;;;;;;;;5030338;28;20240;-46
2022/01/02 08:22:40;;;;;;;2.53;1.63;;;;;;;;;;5038462;28;20191;-46
2022/01/02 08:25:06;;;;;;;1.98;1.42;;;;;;;;;;5035342;28;20183;-46
2022/01/02 08:27:32;;;;;;;2.13;1.60;;;;;;;;;;5030456;28;20470;-46
2022/01/02 08:29:59;;;;;;;1.67;1.58;;;;;;;;;;5030212;28;20179;-46
2022/01/02 08:32:25;;;;;;;1.88;1.33;;;;;;;;;;5045182;28;20474;-46
2022/01/02 08:34:51;;;;;;;2.95;1.52;;;;;;;;;;5041833;28;20550;-46
2022/01/02 08:37:17;;;;;;;1.48;1.38;;;;;;;;;;5040168;28;20485;-46
2022/01/02 08:39:44;;;;;;;1.98;1.58;;;;;;;;;;5035358;28;20234;-46
2022/01/02 08:42:10;;;;;;;2.95;1.52;;;;;;;;;;5049235;28;20263;-46
2022/01/02 08:44:38;;;;;;;1.95;1.40;;;;;;;;;;5040449;28;20184;-46
2022/01/02 08:47:04;;;;;;;1.70;1.42;;;;;;;;;;5036823;28;20251;-46
2022/01/02 08:49:30;;;;;;;1.63;1.10;;;;;;;;;;5027157;28;20191;-46
2022/01/02 08:51:56;;;;;;;2.75;1.40;;;;;;;;;;5047536;28;20182;-46
2022/01/02 08:54:22;;;;;;;2.80;1.23;;;;;;;;;;5039314;28;20229;-46
2022/01/02 08:56:48;;;;;;;1.65;1.55;;;;;;;;;;5041002;28;20215;-45
2022/01/02 08:59:14;;;;;;;2.15;1.38;;;;;;;;;;5041953;28;20239;-45
2022/01/02 09:01:40;;;;;;;3.22;1.38;;;;;;;;;;5032885;28;20184;-46
2022/01/02 09:04:06;;;;;;;2.45;1.33;;;;;;;;;;5036528;28;20208;-46
2022/01/02 09:06:32;;;;;;;2.67;1.17;;;;;;;;;;5036949;28;20180;-46
2022/01/02 09:08:59;;;;;;;3.20;1.75;;;;;;;;;;5029564;28;20443;-46
2022/01/02 09:11:25;;;;;;;4.93;1.63;;;;;;;;;;5040527;28;20216;-46
2022/01/02 09:13:51;;;;;;;3.28;1.33;;;;;;;;;;5041787;28;20184;-46
2022/01/02 09:16:17;;;;;;;1.30;1.20;;;;;;;;;;5035978;28;20267;-46
2022/01/02 09:18:43;;;;;;;1.67;1.58;;;;;;;;;;5023152;28;20204;-46
2022/01/02 09:21:09;;;;;;;4.35;1.40;;;;;;;;;;5039425;28;20469;-46
2022/01/02 09:23:36;;;;;;;2.45;1.50;;;;;;;;;;5040509;28;20172;-46
2022/01/02 09:26:02;;;;;;;2.58;1.45;;;;;;;;;;5036128;28;20182;-46
2022/01/02 09:28:28;;;;;;;3.85;1.42;;;;;;;;;;5046155;28;20199;-46
2022/01/02 09:30:54;;;;;;;4.35;1.33;;;;;;;;;;5041986;28;20494;-46
2022/01/02 09:33:20;;;;;;;4.43;1.73;;;;;;;;;;5033666;28;20272;-46
2022/01/02 09:35:46;;;;;;;3.25;1.50;;;;;;;;;;5044592;28;20190;-46
2022/01/02 09:38:12;;;;;;;6.25;1.45;;;;;;;;;;5038261;28;20249;-45
2022/01/02 09:40:40;;;;;;;7.53;1.73;;;;;;;;;;5035336;28;20191;-45
2022/01/02 09:43:06;;;;;;;4.28;1.42;;;;;;;;;;5034668;28;20176;-46
2022/01/02 09:45:33;;;;;;;6.60;1.48;;;;;;;;;;5039724;28;20543;-45
2022/01/02 09:48:00;;;;;;;4.72;1.60;;;;;;;;;;5043849;28;20183;-45
2022/01/02 09:50:26;;;;;;;3.08;1.40;;;;;;;;;;5036764;28;20269;-45
2022/01/02 09:52:52;;;;;;;3.10;1.40;;;;;;;;;;5042987;28;20215;-46
2022/01/02 09:55:18;;;;;;;2.63;1.42;;;;;;;;;;5038292;28;20604;-46
2022/01/02 09:57:45;;;;;;;2.83;1.30;;;;;;;;;;5042504;28;20667;-46
2022/01/02 10:00:13;;;;;;;5.60;1.40;;;;;;;;;;5029971;28;20458;-46
2022/01/02 10:02:54;;;;;;;3.00;1.63;;;;;;;;;;5039453;28;20260;-46
2022/01/02 10:05:21;;;;;;;2.10;1.40;;;;;;;;;;5038507;28;20179;-46
2022/01/02 10:07:48;;;;;;;5.72;1.30;;;;;;;;;;5043167;28;20546;-46
2022/01/02 10:10:14;;;;;;;4.78;1.67;;;;;;;;;;5026216;28;20200;-46
2022/01/02 10:12:40;;;;;;;2.85;1.33;;;;;;;;;;5024822;28;20188;-46
2022/01/02 10:15:17;;;;;;;3.50;1.40;;;;;;;;;;5028241;28;20569;-46
2022/01/02 10:17:53;;;;;;;2.85;1.15;;;;;;;;;;5034900;28;20242;-46
2022/01/02 10:20:20;;;;;;;1.30;1.10;;;;;;;;;;5021401;28;20211;-46
2022/01/02 10:23:01;;;;;;;2.47;1.30;;;;;;;;;;5033184;28;20188;-46
2022/01/02 10:25:46;;;;;;;1.70;1.30;;;;;;;;;;5033162;28;20172;-46
2022/01/02 10:28:26;;;;;;;3.10;1.30;;;;;;;;;;5026688;28;20195;-46
2022/01/02 10:30:53;;;;;;;4.05;1.65;;;;;;;;;;5038114;28;20218;-46
2022/01/02 10:33:19;;;;;;;2.88;1.50;;;;;;;;;;5045804;28;20214;-46
2022/01/02 10:35:45;;;;;;;2.55;1.40;;;;;;;;;;5044145;28;20191;-46
2022/01/02 10:38:15;;;;;;;2.08;1.40;;;;;;;;;;5046413;28;20268;-46
2022/01/02 10:40:42;;;;;;;3.38;1.40;;;;;;;;;;5035000;28;20184;-46
2022/01/02 10:43:09;;;;;;;2.67;1.52;;;;;;;;;;5046200;28;20167;-46
2022/01/02 10:45:40;;;;;;;1.88;1.17;;;;;;;;;;5035109;28;20198;-46
2022/01/02 10:48:08;;;;;;;2.17;1.50;;;;;;;;;;5036867;28;20183;-46
2022/01/02 10:50:35;;;;;;;2.63;1.15;;;;;;;;;;5026996;28;20188;-46
2022/01/02 10:53:11;;;;;;;1.80;1.30;;;;;;;;;;5048156;28;20183;-46
2022/01/02 10:55:37;;;;;;;3.70;1.25;;;;;;;;;;5039541;28;20190;-46
2022/01/02 10:58:07;;;;;;;2.60;1.40;;;;;;;;;;5040501;28;20286;-46
2022/01/02 11:00:33;;;;;;;1.35;1.20;;;;;;;;;;5044575;28;20569;-46
2022/01/02 11:03:00;;;;;;;1.85;1.40;;;;;;;;;;5044883;28;20241;-46
2022/01/02 11:05:28;;;;;;;1.48;1.38;;;;;;;;;;5043995;28;20488;-46
2022/01/02 11:07:58;;;;;;;2.03;1.27;;;;;;;;;;5027148;28;20505;-46
2022/01/02 11:10:25;;;;;;;1.90;1.15;;;;;;;;;;5030877;28;20180;-46
2022/01/02 11:12:52;;;;;;;2.70;1.40;;;;;;;;;;5045087;28;20257;-46
2022/01/02 11:15:19;;;;;;;2.05;1.55;;;;;;;;;;5040047;28;20208;-46
2022/01/02 11:17:45;;;;;;;1.30;1.20;;;;;;;;;;5040716;28;20501;-46
2022/01/02 11:20:13;;;;;;;1.02;0.93;;;;;;;;;;5037383;28;20184;-46
2022/01/02 11:22:43;;;;;;;1.83;1.23;;;;;;;;;;5041369;28;20550;-46
2022/01/02 11:25:21;;;;;;;1.52;1.25;;;;;;;;;;5032670;28;20916;-46
2022/01/02 11:27:58;;;;;;;1.10;1.00;;;;;;;;;;5045869;28;20260;-46
2022/01/02 11:30:30;;;;;;;1.38;1.27;;;;;;;;;;5046907;28;20218;-46
2022/01/02 11:33:02;;;;;;;2.25;1.30;;;;;;;;;;5046042;28;20199;-46
2022/01/02 11:35:31;;;;;;;1.65;1.35;;;;;;;;;;5048038;28;20195;-46
2022/01/02 11:38:01;;;;;;;1.42;1.15;;;;;;;;;;5043160;28;20241;-46
2022/01/02 11:40:47;;;;;;;1.40;1.10;;;;;;;;;;5031856;28;20188;-46
2022/01/02 11:43:31;;;;;;;1.42;1.10;;;;;;;;;;5043189;28;20464;-46
2022/01/02 11:46:16;;;;;;;1.20;1.10;;;;;;;;;;5041794;28;20513;-45
2022/01/02 11:48:42;;;;;;;2.58;1.40;;;;;;;;;;5040343;28;20196;-45
2022/01/02 11:51:08;;;;;;;1.23;1.13;;;;;;;;;;5036675;28;20233;-45
2022/01/02 11:53:35;;;;;;;1.30;1.20;;;;;;;;;;5049285;28;20274;-45
2022/01/02 11:56:01;;;;;;;1.15;1.00;;;;;;;;;;5037063;28;20563;-46
2022/01/02 11:58:46;;;;;;;1.23;1.13;;;;;;;;;;5038919;28;20208;-46
2022/01/02 12:01:32;;;;;;;1.67;1.25;;;;;;;;;;5028662;28;20262;-46
2022/01/02 12:03:58;;;;;;;1.30;1.20;;;;;;;;;;5030975;28;20281;-46
2022/01/02 12:06:33;;;;;;;1.70;1.10;;;;;;;;;;5039925;28;20268;-46
2022/01/02 12:08:59;;;;;;;1.30;1.15;;;;;;;;;;5037246;28;20178;-46
2022/01/02 12:11:31;;;;;;;1.63;1.30;;;;;;;;;;5046665;28;20474;-46
2022/01/02 12:14:11;;;;;;;1.55;1.38;;;;;;;;;;5037694;28;20192;-46
2022/01/02 12:16:39;;;;;;;1.27;0.90;;;;;;;;;;5029007;28;20180;-46
2022/01/02 12:19:05;;;;;;;3.35;1.55;;;;;;;;;;5045251;28;20207;-45
2022/01/02 12:21:32;;;;;;;10.95;4.47;;;;;;;;;;5033593;28;20183;-45
2022/01/02 12:23:59;;;;;;;13.73;5.57;;;;;;;;;;5038651;28;20182;-45
2022/01/02 12:26:29;;;;;;;13.82;4.80;;;;;;;;;;5040350;28;20188;-46
2022/01/02 12:29:05;;;;;;;15.75;5.30;;;;;;;;;;5036686;28;20512;-46
2022/01/02 12:31:44;;;;;;;14.68;5.40;;;;;;;;;;5042865;28;20182;-46
2022/01/02 12:34:14;;;;;;;14.07;4.65;;;;;;;;;;5035894;28;20207;-46
2022/01/02 12:36:42;;;;;;;12.98;4.68;;;;;;;;;;5027526;28;20573;-46
2022/01/02 12:39:10;;;;;;;12.32;4.78;;;;;;;;;;5045105;28;20238;-46
2022/01/02 12:41:37;;;;;;;8.15;3.78;;;;;;;;;;5045124;28;20190;-46
2022/01/02 12:44:05;;;;;;;11.10;4.22;;;;;;;;;;5052553;28;20206;-46
2022/01/02 12:46:31;;;;;;;8.48;3.97;;;;;;;;;;5043495;28;20191;-45
2022/01/02 12:48:58;;;;;;;9.65;4.78;;;;;;;;;;5030609;28;20181;-46
2022/01/02 12:51:28;;;;;;;11.20;4.32;;;;;;;;;;5037785;28;20402;-46
2022/01/02 12:54:07;;;;;;;12.15;4.78;;;;;;;;;;5034364;28;20183;-46
2022/01/02 12:56:36;;;;;;;11.75;4.78;;;;;;;;;;5042813;28;20266;-46
2022/01/02 12:59:21;;;;;;;12.25;4.60;;;;;;;;;;5042520;28;20234;-46
2022/01/02 13:01:49;;;;;;;10.95;4.03;;;;;;;;;;5032956;28;20190;-46
2022/01/02 13:04:17;;;;;;;13.55;4.82;;;;;;;;;;5032486;28;20436;-46
2022/01/02 13:06:46;;;;;;;9.90;4.28;;;;;;;;;;5027151;28;20171;-46
2022/01/02 13:09:13;;;;;;;10.82;5.07;;;;;;;;;;5031184;28;20188;-46
2022/01/02 13:11:39;;;;;;;9.77;4.30;;;;;;;;;;5033280;28;20192;-46
2022/01/02 13:14:05;;;;;;;11.85;4.70;;;;;;;;;;5030210;28;20446;-46
2022/01/02 13:16:31;;;;;;;11.48;4.43;;;;;;;;;;5022730;28;20192;-46
2022/01/02 13:18:58;;;;;;;12.35;5.25;;;;;;;;;;5032992;28;20260;-46
2022/01/02 13:21:25;;;;;;;11.73;5.10;;;;;;;;;;5024149;28;20180;-46
2022/01/02 13:23:51;;;;;;;9.32;4.35;;;;;;;;;;5038623;28;20168;-46
2022/01/02 13:26:18;;;;;;;8.02;4.05;;;;;;;;;;5035908;28;20176;-46
2022/01/02 13:28:45;;;;;;;13.48;4.57;;;;;;;;;;5036754;28;20285;-46
2022/01/02 13:31:23;;;;;;;12.40;4.85;;;;;;;;;;5034679;28;20221;-46
2022/01/02 13:33:49;;;;;;;9.82;4.00;;;;;;;;;;5038467;28;20204;-46
2022/01/02 13:36:18;;;;;;;16.58;4.93;;;;;;;;;;5041158;28;20187;-46
2022/01/02 13:38:50;;;;;;;14.30;4.18;;;;;;;;;;5033262;28;20493;-46
2022/01/02 13:41:16;;;;;;;10.18;4.40;;;;;;;;;;5037516;28;20535;-46
2022/01/02 13:43:42;;;;;;;8.63;3.65;;;;;;;;;;5046733;28;20184;-46
2022/01/02 13:46:08;;;;;;;8.95;4.03;;;;;;;;;;5041643;28;20176;-46
2022/01/02 13:48:35;;;;;;;8.93;3.90;;;;;;;;;;5028378;28;20551;-46
2022/01/02 13:51:01;;;;;;;8.40;4.03;;;;;;;;;;5037322;28;20256;-46
2022/01/02 13:53:31;;;;;;;10.35;3.90;;;;;;;;;;5032519;28;20194;-46
2022/01/02 13:56:06;;;;;;;8.45;3.67;;;;;;;;;;5044904;28;20175;-45
2022/01/02 13:58:49;;;;;;;7.65;3.50;;;;;;;;;;5037286;28;20250;-45
2022/01/02 14:01:15;;;;;;;9.07;4.07;;;;;;;;;;5038133;28;20210;-46
2022/01/02 14:03:42;;;;;;;9.80;3.72;;;;;;;;;;5028733;28;20227;-46
2022/01/02 14:06:11;;;;;;;10.20;3.75;;;;;;;;;;5045534;28;20179;-46
2022/01/02 14:08:42;;;;;;;11.45;3.65;;;;;;;;;;5037698;28;20198;-46
2022/01/02 14:11:18;;;;;;;11.02;4.03;;;;;;;;;;5041667;28;20222;-45
2022/01/02 14:14:04;;;;;;;9.68;3.90;;;;;;;;;;5037656;28;20559;-45
2022/01/02 14:19:04;;;;;;;9.05;3.72;;;;;;;;;;5044359;28;20221;-45
2022/01/02 14:21:30;;;;;;;6.85;3.55;;;;;;;;;;5048931;28;20195;-46
2022/01/02 14:23:56;;;;;;;8.65;3.28;;;;;;;;;;5046713;28;20182;-46
2022/01/02 14:26:22;;;;;;;7.55;3.50;;;;;;;;;;5042699;28;20193;-46
2022/01/02 14:28:53;;;;;;;6.78;3.60;;;;;;;;;;5038160;28;20191;-46
2022/01/02 14:31:19;;;;;;;8.93;3.45;;;;;;;;;;5039206;28;20258;-46
2022/01/02 14:33:45;;;;;;;12.68;3.72;;;;;;;;;;5042603;28;20258;-46
2022/01/02 14:36:11;;;;;;;6.72;3.60;;;;;;;;;;5044860;28;20489;-46
2022/01/02 14:38:37;;;;;;;4.95;3.15;;;;;;;;;;5036851;28;20269;-46
2022/01/02 14:41:03;;;;;;;7.88;3.17;;;;;;;;;;5040251;28;20463;-46
2022/01/02 14:43:30;;;;;;;6.55;3.53;;;;;;;;;;5035260;28;20248;-46
2022/01/02 14:45:56;;;;;;;5.07;3.17;;;;;;;;;;5047673;28;20442;-46
2022/01/02 14:48:23;;;;;;;7.55;3.22;;;;;;;;;;5026829;28;20262;-46
2022/01/02 14:50:49;;;;;;;8.80;3.85;;;;;;;;;;5045166;28;20182;-46
2022/01/02 14:53:15;;;;;;;7.03;3.38;;;;;;;;;;5032337;28;20283;-46
2022/01/02 14:55:42;;;;;;;7.35;3.28;;;;;;;;;;5040103;28;20219;-46
2022/01/02 14:58:08;;;;;;;6.05;3.08;;;;;;;;;;5035279;28;20211;-46